Time;durP1;ratioP1;P1;durP2;ratioP2;P2;SDS_P1;SDS_P2;PMS_P1;PMS_P2;Temp;Humidity;BMP_temperature;BMP_pressure;BME280_temperature;BME280_humidity;BME280_pressure;Samples;Min_cycle;Max_cycle;Signal;HPM_P1;HPM_P2
2021/05/09 00:02:03;;;;;;;;;14.00;14.00;;;;;;;;3724346;37;17719;-60
2021/05/09 00:04:32;;;;;;;;;11.75;11.75;;;;;;;;3724339;37;17696;-61
2021/05/09 00:06:58;;;;;;;;;14.00;14.00;;;;;;;;3724660;37;20772;-59
2021/05/09 00:09:24;;;;;;;;;10.00;9.75;;;;;;;;3724681;37;17693;-60
2021/05/09 00:11:50;;;;;;;;;10.00;10.00;;;;;;;;3724602;38;20824;-59
2021/05/09 00:14:16;;;;;;;;;12.75;12.75;;;;;;;;3724642;37;17715;-59
2021/05/09 00:16:42;;;;;;;;;11.50;11.50;;;;;;;;3724537;37;20736;-59
2021/05/09 00:19:08;;;;;;;;;14.75;13.25;;;;;;;;3724597;38;17696;-59
2021/05/09 00:21:34;;;;;;;;;12.25;12.25;;;;;;;;3724591;37;17676;-59
2021/05/09 00:24:00;;;;;;;;;11.00;11.00;;;;;;;;3724644;37;20619;-60
2021/05/09 00:26:25;;;;;;;;;12.50;11.50;;;;;;;;3724600;38;17689;-59
2021/05/09 00:28:51;;;;;;;;;12.25;10.50;;;;;;;;3724498;37;17668;-59
2021/05/09 00:31:18;;;;;;;;;11.50;11.00;;;;;;;;3724622;38;17672;-60
2021/05/09 00:33:43;;;;;;;;;11.75;11.75;;;;;;;;3724059;38;17673;-60
2021/05/09 00:36:10;;;;;;;;;11.75;11.00;;;;;;;;3724308;38;20715;-60
2021/05/09 00:38:36;;;;;;;;;11.00;11.00;;;;;;;;3724661;37;20672;-60
2021/05/09 00:41:02;;;;;;;;;12.75;11.75;;;;;;;;3724573;37;20693;-60
2021/05/09 00:43:28;;;;;;;;;11.00;11.00;;;;;;;;3724756;38;17643;-60
2021/05/09 00:45:54;;;;;;;;;11.00;10.50;;;;;;;;3724763;38;17647;-60
2021/05/09 00:48:20;;;;;;;;;13.75;12.00;;;;;;;;3724825;37;17648;-59
2021/05/09 00:50:46;;;;;;;;;13.00;13.00;;;;;;;;3724762;38;17659;-59
2021/05/09 00:53:17;;;;;;;;;11.25;11.25;;;;;;;;3724930;38;17657;-59
2021/05/09 00:55:44;;;;;;;;;12.25;12.00;;;;;;;;3724706;37;20684;-58
2021/05/09 00:58:10;;;;;;;;;10.75;10.75;;;;;;;;3724349;37;21705;-60
2021/05/09 01:00:36;;;;;;;;;10.75;10.75;;;;;;;;3724613;37;21665;-60
2021/05/09 01:03:09;;;;;;;;;9.75;9.75;;;;;;;;3724611;37;21703;-60
2021/05/09 01:05:35;;;;;;;;;10.50;10.00;;;;;;;;3724599;37;18637;-60
2021/05/09 01:08:04;;;;;;;;;11.75;11.75;;;;;;;;3724586;37;21639;-60
2021/05/09 01:10:29;;;;;;;;;12.00;12.00;;;;;;;;3724432;37;21650;-60
2021/05/09 01:12:55;;;;;;;;;12.75;11.00;;;;;;;;3724514;37;21718;-60
2021/05/09 01:15:22;;;;;;;;;13.25;12.75;;;;;;;;3724481;37;18613;-60
2021/05/09 01:17:51;;;;;;;;;10.75;10.75;;;;;;;;3724620;38;18611;-59
2021/05/09 01:20:37;;;;;;;;;11.50;11.50;;;;;;;;3724142;38;21635;-60
2021/05/09 01:23:04;;;;;;;;;11.75;11.00;;;;;;;;3724623;37;21675;-58
2021/05/09 01:25:30;;;;;;;;;11.00;11.00;;;;;;;;3724227;38;21653;-58
2021/05/09 01:27:56;;;;;;;;;12.25;10.75;;;;;;;;3724656;37;21677;-58
2021/05/09 01:30:22;;;;;;;;;9.25;9.25;;;;;;;;3724495;38;18596;-58
2021/05/09 01:32:48;;;;;;;;;13.00;12.50;;;;;;;;3724490;37;21553;-59
2021/05/09 01:35:15;;;;;;;;;15.50;15.50;;;;;;;;3724546;38;18617;-58
2021/05/09 01:37:41;;;;;;;;;11.00;11.00;;;;;;;;3724357;38;18603;-58
2021/05/09 01:40:08;;;;;;;;;10.00;9.25;;;;;;;;3724609;37;21601;-58
2021/05/09 01:42:35;;;;;;;;;10.75;10.75;;;;;;;;3724753;38;21608;-58
2021/05/09 01:45:00;;;;;;;;;12.25;12.00;;;;;;;;3724333;38;21620;-58
2021/05/09 01:47:27;;;;;;;;;12.25;11.25;;;;;;;;3724636;37;21651;-58
2021/05/09 01:49:52;;;;;;;;;12.25;11.50;;;;;;;;3724824;38;18573;-58
2021/05/09 01:52:19;;;;;;;;;13.25;11.25;;;;;;;;3724267;38;21629;-58
2021/05/09 01:54:45;;;;;;;;;14.25;12.00;;;;;;;;3724779;37;18583;-58
2021/05/09 01:57:11;;;;;;;;;10.75;8.25;;;;;;;;3724587;38;21599;-58
2021/05/09 01:59:38;;;;;;;;;14.50;14.25;;;;;;;;3724312;38;21563;-57
2021/05/09 02:02:09;;;;;;;;;14.50;14.25;;;;;;;;3724681;38;21649;-59
2021/05/09 02:04:38;;;;;;;;;13.00;12.50;;;;;;;;3724678;38;21631;-59
2021/05/09 02:07:04;;;;;;;;;11.75;11.75;;;;;;;;3724454;38;21628;-60
2021/05/09 02:09:30;;;;;;;;;10.50;10.50;;;;;;;;3724207;37;21586;-61
2021/05/09 02:11:56;;;;;;;;;11.25;10.75;;;;;;;;3724617;37;21574;-61
2021/05/09 02:14:22;;;;;;;;;11.75;11.25;;;;;;;;3724713;38;18535;-59
2021/05/09 02:16:47;;;;;;;;;11.00;11.00;;;;;;;;3724589;37;18542;-59
2021/05/09 02:19:13;;;;;;;;;11.75;11.75;;;;;;;;3724853;37;18535;-60
2021/05/09 02:21:39;;;;;;;;;15.75;13.75;;;;;;;;3724935;37;18534;-60
2021/05/09 02:24:06;;;;;;;;;11.00;11.00;;;;;;;;3724702;38;18540;-60
2021/05/09 02:26:32;;;;;;;;;14.75;13.50;;;;;;;;3724698;37;21552;-60
2021/05/09 02:28:58;;;;;;;;;15.75;15.75;;;;;;;;3724839;37;21574;-59
2021/05/09 02:31:25;;;;;;;;;14.50;13.00;;;;;;;;3724481;37;21588;-60
2021/05/09 02:33:51;;;;;;;;;15.50;15.50;;;;;;;;3724641;38;21612;-61
2021/05/09 02:36:17;;;;;;;;;16.25;15.25;;;;;;;;3724643;38;21598;-60
2021/05/09 02:38:43;;;;;;;;;12.75;12.75;;;;;;;;3724741;37;21588;-62
2021/05/09 02:41:09;;;;;;;;;12.50;12.50;;;;;;;;3724464;38;18497;-61
2021/05/09 02:43:34;;;;;;;;;13.75;13.75;;;;;;;;3724642;38;21566;-61
2021/05/09 02:46:00;;;;;;;;;16.50;15.75;;;;;;;;3724638;38;18492;-60
2021/05/09 02:48:26;;;;;;;;;15.50;15.00;;;;;;;;3724847;38;18513;-60
2021/05/09 02:50:52;;;;;;;;;13.75;13.75;;;;;;;;3724770;37;18488;-60
2021/05/09 02:53:18;;;;;;;;;14.75;13.50;;;;;;;;3724667;37;21561;-60
2021/05/09 02:55:50;;;;;;;;;15.50;15.25;;;;;;;;3724632;37;18784;-60
2021/05/09 02:58:15;;;;;;;;;17.00;16.50;;;;;;;;3724641;38;18491;-60
2021/05/09 03:00:42;;;;;;;;;15.75;15.50;;;;;;;;3724612;38;21563;-59
2021/05/09 03:03:07;;;;;;;;;14.75;13.25;;;;;;;;3724798;37;18714;-60
2021/05/09 03:05:35;;;;;;;;;4.25;4.25;;;;;;;;3724765;38;21545;-60
2021/05/09 03:08:01;;;;;;;;;15.75;14.75;;;;;;;;3724751;38;21498;-59
2021/05/09 03:10:28;;;;;;;;;16.00;15.75;;;;;;;;3724766;38;21539;-61
2021/05/09 03:12:54;;;;;;;;;18.25;16.75;;;;;;;;3724590;38;18472;-61
2021/05/09 03:15:19;;;;;;;;;16.25;15.00;;;;;;;;3724683;37;21477;-60
2021/05/09 03:17:45;;;;;;;;;10.50;9.25;;;;;;;;3724733;37;18455;-60
2021/05/09 03:20:11;;;;;;;;;13.25;12.00;;;;;;;;3724906;38;18465;-59
2021/05/09 03:22:37;;;;;;;;;10.75;10.75;;;;;;;;3724791;38;18448;-60
2021/05/09 03:25:03;;;;;;;;;13.25;13.25;;;;;;;;3724631;38;21428;-60
2021/05/09 03:27:30;;;;;;;;;13.50;12.25;;;;;;;;3724669;37;18460;-61
2021/05/09 03:29:56;;;;;;;;;18.50;14.50;;;;;;;;3724400;38;21500;-60
2021/05/09 03:32:24;;;;;;;;;13.75;13.75;;;;;;;;3724831;38;21513;-60
2021/05/09 03:34:57;;;;;;;;;13.75;13.75;;;;;;;;3724653;37;21502;-60
2021/05/09 03:37:22;;;;;;;;;15.25;13.00;;;;;;;;3724661;38;21456;-59
2021/05/09 03:39:50;;;;;;;;;14.25;13.50;;;;;;;;3724743;37;21487;-59
2021/05/09 03:42:15;;;;;;;;;18.00;17.00;;;;;;;;3724902;38;18419;-60
2021/05/09 03:44:42;;;;;;;;;15.25;15.25;;;;;;;;3724702;37;21484;-59
2021/05/09 03:47:08;;;;;;;;;17.00;16.50;;;;;;;;3724337;38;21503;-60
2021/05/09 03:49:34;;;;;;;;;17.25;17.25;;;;;;;;3724159;37;21405;-59
2021/05/09 03:52:00;;;;;;;;;22.25;18.50;;;;;;;;3724608;38;18429;-59
2021/05/09 03:54:34;;;;;;;;;19.75;19.75;;;;;;;;3724265;38;18427;-59
2021/05/09 03:57:01;;;;;;;;;21.25;17.50;;;;;;;;3724405;37;21497;-60
2021/05/09 03:59:27;;;;;;;;;16.25;16.00;;;;;;;;3724745;37;21484;-60
2021/05/09 04:01:53;;;;;;;;;22.50;19.00;;;;;;;;3724686;37;21255;-60
2021/05/09 04:04:19;;;;;;;;;15.00;15.00;;;;;;;;3724636;37;18382;-59
2021/05/09 04:06:46;;;;;;;;;16.50;16.25;;;;;;;;3724587;38;18407;-59
2021/05/09 04:09:12;;;;;;;;;17.50;17.50;;;;;;;;3724701;37;18385;-61
2021/05/09 04:11:38;;;;;;;;;18.50;18.00;;;;;;;;3724635;37;21449;-59
2021/05/09 04:14:04;;;;;;;;;16.50;16.50;;;;;;;;3724773;38;18378;-60
2021/05/09 04:16:30;;;;;;;;;16.50;16.25;;;;;;;;3724701;37;18388;-59
2021/05/09 04:18:55;;;;;;;;;15.25;15.00;;;;;;;;3724572;37;21465;-60
2021/05/09 04:21:21;;;;;;;;;16.25;15.50;;;;;;;;3724335;37;18633;-61
2021/05/09 04:23:47;;;;;;;;;16.25;15.00;;;;;;;;3724661;38;18381;-60
2021/05/09 04:26:13;;;;;;;;;16.00;16.00;;;;;;;;3724596;38;18363;-60
2021/05/09 04:28:39;;;;;;;;;15.75;15.75;;;;;;;;3724794;37;18368;-61
2021/05/09 04:31:05;;;;;;;;;16.50;14.00;;;;;;;;3724676;37;21423;-60
2021/05/09 04:33:31;;;;;;;;;12.50;12.50;;;;;;;;3724758;38;18339;-60
2021/05/09 04:35:56;;;;;;;;;13.50;13.25;;;;;;;;3724635;37;18369;-61
2021/05/09 04:38:23;;;;;;;;;15.75;14.50;;;;;;;;3724749;38;18361;-61
2021/05/09 04:40:49;;;;;;;;;15.00;14.25;;;;;;;;3724382;37;18353;-60
2021/05/09 04:43:16;;;;;;;;;13.50;13.50;;;;;;;;3724606;37;21422;-60
2021/05/09 04:45:49;;;;;;;;;14.75;14.00;;;;;;;;3724603;37;21361;-60
2021/05/09 04:48:16;;;;;;;;;13.75;13.75;;;;;;;;3724683;38;21381;-60
2021/05/09 04:50:43;;;;;;;;;13.25;13.00;;;;;;;;3724649;38;21371;-60
2021/05/09 04:53:28;;;;;;;;;15.25;14.75;;;;;;;;3724198;37;21394;-60
2021/05/09 04:55:54;;;;;;;;;18.25;16.25;;;;;;;;3724747;37;21405;-61
2021/05/09 04:58:20;;;;;;;;;16.25;15.50;;;;;;;;3724699;37;21392;-61
2021/05/09 05:00:47;;;;;;;;;16.50;16.25;;;;;;;;3724777;37;21389;-60
2021/05/09 05:03:14;;;;;;;;;15.00;14.50;;;;;;;;3724912;37;18301;-60
2021/05/09 05:05:41;;;;;;;;;14.00;14.00;;;;;;;;3724645;37;21355;-60
2021/05/09 05:08:07;;;;;;;;;16.25;16.25;;;;;;;;3724197;37;21389;-62
2021/05/09 05:10:33;;;;;;;;;16.25;16.25;;;;;;;;3724622;38;21395;-63
2021/05/09 05:12:59;;;;;;;;;17.00;17.00;;;;;;;;3724519;38;21307;-64
2021/05/09 05:15:26;;;;;;;;;20.25;19.00;;;;;;;;3725100;37;18300;-62
2021/05/09 05:17:52;;;;;;;;;15.25;15.25;;;;;;;;3724290;37;21357;-61
2021/05/09 05:20:18;;;;;;;;;15.50;14.25;;;;;;;;3724324;37;21365;-62
2021/05/09 05:22:43;;;;;;;;;13.25;13.25;;;;;;;;3724095;37;21352;-62
2021/05/09 05:25:10;;;;;;;;;13.75;13.75;;;;;;;;3724649;38;18307;-61
2021/05/09 05:27:36;;;;;;;;;19.75;19.75;;;;;;;;3724623;37;18299;-61
2021/05/09 05:30:02;;;;;;;;;33.75;31.50;;;;;;;;3724521;37;21355;-61
2021/05/09 05:32:28;;;;;;;;;14.25;14.25;;;;;;;;3724691;38;18267;-61
2021/05/09 05:34:57;;;;;;;;;15.00;13.50;;;;;;;;3724384;37;21343;-62
2021/05/09 05:37:23;;;;;;;;;12.25;11.50;;;;;;;;3724729;37;21334;-61
2021/05/09 05:39:48;;;;;;;;;13.50;13.50;;;;;;;;3725196;37;18261;-67
2021/05/09 05:42:14;;;;;;;;;11.75;11.75;;;;;;;;3724954;38;18314;-59
2021/05/09 05:44:40;;;;;;;;;12.50;11.75;;;;;;;;3724359;37;18270;-56
2021/05/09 05:47:07;;;;;;;;;12.00;11.75;;;;;;;;3724768;37;18245;-59
2021/05/09 05:49:32;;;;;;;;;11.25;10.00;;;;;;;;3723884;38;18271;-60
2021/05/09 05:52:01;;;;;;;;;10.00;9.75;;;;;;;;3724602;37;21243;-59
2021/05/09 05:54:27;;;;;;;;;10.75;9.00;;;;;;;;3725167;37;18262;-62
2021/05/09 05:56:53;;;;;;;;;12.75;12.75;;;;;;;;3724683;38;21232;-59
2021/05/09 05:59:22;;;;;;;;;12.00;10.00;;;;;;;;3724822;38;21323;-56
2021/05/09 06:01:48;;;;;;;;;8.00;8.00;;;;;;;;3724370;38;18240;-62
2021/05/09 06:04:13;;;;;;;;;10.00;9.75;;;;;;;;3724431;37;20988;-59
2021/05/09 06:06:39;;;;;;;;;11.25;10.50;;;;;;;;3724180;37;18225;-61
2021/05/09 06:09:05;;;;;;;;;10.00;10.00;;;;;;;;3724487;37;18265;-61
2021/05/09 06:11:37;;;;;;;;;9.00;9.00;;;;;;;;3725717;37;18209;-62
2021/05/09 06:14:03;;;;;;;;;10.00;8.25;;;;;;;;3724498;38;21167;-60
2021/05/09 06:16:29;;;;;;;;;9.50;9.00;;;;;;;;3724297;37;21192;-58
2021/05/09 06:18:56;;;;;;;;;8.25;8.25;;;;;;;;3724308;37;21160;-60
2021/05/09 06:21:21;;;;;;;;;8.50;8.50;;;;;;;;3724233;38;21133;-58
2021/05/09 06:23:47;;;;;;;;;10.00;10.00;;;;;;;;3724570;38;18232;-57
2021/05/09 06:26:13;;;;;;;;;7.75;7.75;;;;;;;;3724567;38;18210;-56
2021/05/09 06:28:38;;;;;;;;;8.00;7.25;;;;;;;;3724613;37;18216;-62
2021/05/09 06:31:05;;;;;;;;;9.50;9.50;;;;;;;;3724647;38;18204;-62
2021/05/09 06:33:31;;;;;;;;;8.00;8.00;;;;;;;;3724010;38;18213;-61
2021/05/09 06:35:57;;;;;;;;;11.00;11.00;;;;;;;;3724040;37;21132;-60
2021/05/09 06:38:23;;;;;;;;;7.00;7.00;;;;;;;;3724311;38;21225;-61
2021/05/09 06:40:49;;;;;;;;;10.00;9.00;;;;;;;;3724639;38;18182;-61
2021/05/09 06:43:17;;;;;;;;;9.00;8.25;;;;;;;;3724644;37;18179;-61
2021/05/09 06:45:46;;;;;;;;;10.00;10.00;;;;;;;;3724265;38;18193;-62
2021/05/09 06:48:12;;;;;;;;;9.75;9.75;;;;;;;;3724399;38;21155;-61
2021/05/09 06:50:38;;;;;;;;;10.75;10.50;;;;;;;;3724946;37;21101;-61
2021/05/09 06:53:04;;;;;;;;;8.00;7.25;;;;;;;;3724701;37;21218;-60
2021/05/09 06:55:32;;;;;;;;;8.00;8.00;;;;;;;;3724730;38;18166;-64
2021/05/09 06:57:58;;;;;;;;;8.75;8.75;;;;;;;;3724689;37;21129;-61
2021/05/09 07:00:24;;;;;;;;;7.50;7.50;;;;;;;;3724842;38;21176;-62
2021/05/09 07:02:50;;;;;;;;;8.75;8.00;;;;;;;;3724819;38;18270;-61
2021/05/09 07:05:16;;;;;;;;;9.50;8.50;;;;;;;;3724778;37;21094;-61
2021/05/09 07:07:48;;;;;;;;;11.25;11.25;;;;;;;;3724712;37;18174;-62
2021/05/09 07:10:15;;;;;;;;;6.75;6.75;;;;;;;;3725195;38;18134;-61
2021/05/09 07:12:47;;;;;;;;;10.75;9.75;;;;;;;;3724664;37;21124;-62
2021/05/09 07:15:22;;;;;;;;;9.50;9.50;;;;;;;;3724648;37;18128;-60
2021/05/09 07:17:56;;;;;;;;;7.75;7.50;;;;;;;;3724574;38;21157;-61
2021/05/09 07:20:22;;;;;;;;;6.25;6.25;;;;;;;;3724730;37;21109;-61
2021/05/09 07:22:53;;;;;;;;;6.50;6.50;;;;;;;;3724543;38;21088;-60
2021/05/09 07:25:19;;;;;;;;;7.00;7.00;;;;;;;;3724763;37;18116;-61
2021/05/09 07:27:45;;;;;;;;;7.75;7.75;;;;;;;;3724668;38;21054;-61
2021/05/09 07:30:12;;;;;;;;;9.25;9.25;;;;;;;;3724690;37;21106;-62
2021/05/09 07:32:39;;;;;;;;;7.25;6.50;;;;;;;;3726885;37;18128;-63
2021/05/09 07:35:05;;;;;;;;;8.00;7.25;;;;;;;;3729142;37;21075;-62
2021/05/09 07:37:30;;;;;;;;;9.00;8.50;;;;;;;;3725123;37;21109;-61
2021/05/09 07:39:56;;;;;;;;;8.00;8.00;;;;;;;;3724856;37;21093;-63
2021/05/09 07:42:22;;;;;;;;;8.00;7.00;;;;;;;;3725533;38;18097;-64
2021/05/09 07:44:48;;;;;;;;;5.75;5.75;;;;;;;;3724351;38;18101;-62
2021/05/09 07:47:15;;;;;;;;;6.50;6.50;;;;;;;;3726435;37;18103;-59
2021/05/09 07:49:40;;;;;;;;;3.75;3.75;;;;;;;;3724701;38;18114;-59
2021/05/09 07:52:06;;;;;;;;;4.00;4.00;;;;;;;;3724739;37;21164;-60
2021/05/09 07:54:32;;;;;;;;;2.00;2.00;;;;;;;;3724772;37;18110;-62
2021/05/09 07:56:58;;;;;;;;;4.00;4.00;;;;;;;;3724864;37;18089;-60
2021/05/09 07:59:32;;;;;;;;;5.25;4.25;;;;;;;;3724773;38;18059;-60
2021/05/09 08:01:58;;;;;;;;;4.75;4.75;;;;;;;;3724775;37;21099;-59
2021/05/09 08:04:24;;;;;;;;;7.00;6.25;;;;;;;;3724630;38;21028;-65
2021/05/09 08:06:49;;;;;;;;;3.00;3.00;;;;;;;;3724811;37;21099;-61
2021/05/09 08:09:15;;;;;;;;;3.00;3.00;;;;;;;;3724882;38;18059;-62
2021/05/09 08:11:41;;;;;;;;;3.75;3.75;;;;;;;;3724755;38;18088;-63
2021/05/09 08:14:07;;;;;;;;;3.00;3.00;;;;;;;;3724330;37;18056;-61
2021/05/09 08:16:32;;;;;;;;;4.00;4.00;;;;;;;;3724262;37;18085;-61
2021/05/09 08:18:58;;;;;;;;;3.00;3.00;;;;;;;;3724168;37;18068;-61
2021/05/09 08:21:24;;;;;;;;;4.75;4.75;;;;;;;;3724752;38;18066;-63
2021/05/09 08:23:51;;;;;;;;;3.25;3.25;;;;;;;;3724832;37;18043;-62
2021/05/09 08:26:16;;;;;;;;;3.75;3.75;;;;;;;;3724838;38;18266;-61
2021/05/09 08:28:43;;;;;;;;;2.00;1.50;;;;;;;;3724727;37;21004;-61
2021/05/09 08:31:11;;;;;;;;;4.00;4.00;;;;;;;;3724271;38;18046;-61
2021/05/09 08:33:37;;;;;;;;;4.25;4.25;;;;;;;;3724657;38;21026;-61
2021/05/09 08:36:03;;;;;;;;;5.00;4.00;;;;;;;;3724561;38;21019;-61
2021/05/09 08:38:31;;;;;;;;;4.00;4.00;;;;;;;;3724572;37;21046;-61
2021/05/09 08:40:58;;;;;;;;;6.00;6.00;;;;;;;;3724932;38;20997;-61
2021/05/09 08:43:23;;;;;;;;;4.00;3.50;;;;;;;;3724781;37;18043;-60
2021/05/09 08:45:50;;;;;;;;;4.00;4.00;;;;;;;;3724452;38;21002;-62
2021/05/09 08:48:22;;;;;;;;;3.00;3.00;;;;;;;;3724530;37;18016;-62
2021/05/09 08:50:49;;;;;;;;;4.25;4.25;;;;;;;;3726045;38;21031;-61
2021/05/09 08:53:19;;;;;;;;;3.00;3.00;;;;;;;;3724962;38;20978;-59
2021/05/09 08:55:46;;;;;;;;;3.50;3.50;;;;;;;;3724233;37;20981;-60
2021/05/09 08:58:12;;;;;;;;;7.25;6.00;;;;;;;;3724369;38;20976;-61
2021/05/09 09:00:38;;;;;;;;;4.25;4.00;;;;;;;;3724816;38;20979;-62
2021/05/09 09:03:04;;;;;;;;;4.75;4.00;;;;;;;;3724951;38;17997;-62
2021/05/09 09:05:46;;;;;;;;;4.00;4.00;;;;;;;;3724718;37;20980;-61
2021/05/09 09:08:15;;;;;;;;;4.00;3.25;;;;;;;;3724579;37;20978;-62
2021/05/09 09:10:43;;;;;;;;;6.00;5.00;;;;;;;;3724700;38;20973;-64
2021/05/09 09:13:41;;;;;;;;;3.25;3.25;;;;;;;;3724664;37;20978;-64
2021/05/09 09:16:07;;;;;;;;;3.00;3.00;;;;;;;;3724652;37;21021;-62
2021/05/09 09:18:37;;;;;;;;;4.00;4.00;;;;;;;;3724581;38;20988;-61
2021/05/09 09:21:21;;;;;;;;;3.50;3.50;;;;;;;;3724679;37;20974;-60
2021/05/09 09:23:49;;;;;;;;;4.75;4.75;;;;;;;;3724694;37;20952;-61
2021/05/09 09:26:43;;;;;;;;;4.00;4.00;;;;;;;;3724311;37;21212;-62
2021/05/09 09:29:22;;;;;;;;;2.75;2.75;;;;;;;;3724769;38;20944;-61
2021/05/09 09:31:58;;;;;;;;;4.25;4.00;;;;;;;;3724694;38;20977;-62
2021/05/09 09:34:40;;;;;;;;;6.00;5.00;;;;;;;;3724736;38;20947;-62
2021/05/09 09:37:06;;;;;;;;;7.75;6.00;;;;;;;;3724664;37;20943;-62
2021/05/09 09:39:48;;;;;;;;;5.00;5.00;;;;;;;;3724599;38;20891;-63
2021/05/09 09:42:16;;;;;;;;;3.25;3.25;;;;;;;;3724715;37;20938;-61
2021/05/09 09:44:42;;;;;;;;;5.00;5.00;;;;;;;;3724635;37;20955;-62
2021/05/09 09:47:07;;;;;;;;;4.00;4.00;;;;;;;;3724678;37;20912;-61
2021/05/09 09:49:37;;;;;;;;;5.00;5.00;;;;;;;;3724784;38;17957;-60
2021/05/09 09:52:09;;;;;;;;;4.75;3.75;;;;;;;;3724646;37;17957;-59
2021/05/09 09:54:45;;;;;;;;;10.75;9.75;;;;;;;;3724618;38;20962;-61
2021/05/09 09:57:27;;;;;;;;;5.50;4.50;;;;;;;;3724765;37;20990;-60
2021/05/09 10:00:12;;;;;;;;;3.50;3.50;;;;;;;;3724686;38;20891;-62
2021/05/09 10:02:38;;;;;;;;;8.00;8.00;;;;;;;;3724931;38;20939;-64
2021/05/09 10:05:05;;;;;;;;;7.00;6.00;;;;;;;;3724759;37;20887;-62
2021/05/09 10:07:32;;;;;;;;;3.25;3.25;;;;;;;;3724659;38;20898;-61
2021/05/09 10:09:58;;;;;;;;;3.25;3.25;;;;;;;;3724744;37;21180;-60
2021/05/09 10:12:25;;;;;;;;;6.00;6.00;;;;;;;;3724550;38;20905;-60
2021/05/09 10:14:51;;;;;;;;;5.00;5.00;;;;;;;;3724953;38;17912;-60
2021/05/09 10:17:17;;;;;;;;;4.25;4.25;;;;;;;;3724784;37;20906;-61
2021/05/09 10:19:46;;;;;;;;;5.25;5.00;;;;;;;;3724542;38;20903;-60
2021/05/09 10:22:24;;;;;;;;;6.75;5.50;;;;;;;;3724853;38;20884;-61
2021/05/09 10:24:51;;;;;;;;;4.00;4.00;;;;;;;;3724997;37;17899;-61
2021/05/09 10:27:17;;;;;;;;;5.00;4.00;;;;;;;;3724629;37;20880;-64
2021/05/09 10:29:47;;;;;;;;;5.00;5.00;;;;;;;;3724948;37;17911;-59
2021/05/09 10:32:39;;;;;;;;;4.00;4.00;;;;;;;;3724993;37;17882;-60
2021/05/09 10:35:05;;;;;;;;;4.50;4.50;;;;;;;;3725626;37;20849;-61
2021/05/09 10:37:57;;;;;;;;;5.00;5.00;;;;;;;;3724205;37;20822;-61
2021/05/09 10:40:47;;;;;;;;;19.00;18.00;;;;;;;;3724130;38;20851;-61
2021/05/09 10:43:32;;;;;;;;;5.00;5.00;;;;;;;;3724236;37;20965;-61
2021/05/09 10:45:58;;;;;;;;;4.00;4.00;;;;;;;;3724531;38;20905;-62
2021/05/09 10:48:29;;;;;;;;;9.75;9.25;;;;;;;;3724597;37;20886;-60
2021/05/09 10:51:21;;;;;;;;;7.25;7.25;;;;;;;;3724664;38;17856;-61
2021/05/09 10:53:47;;;;;;;;;5.25;5.25;;;;;;;;3724568;38;20903;-61
2021/05/09 10:56:31;;;;;;;;;6.50;6.50;;;;;;;;3724610;38;20834;-61
2021/05/09 10:58:57;;;;;;;;;7.75;7.75;;;;;;;;3724737;37;17860;-58
2021/05/09 11:01:31;;;;;;;;;7.00;6.75;;;;;;;;3724749;38;20847;-59
2021/05/09 11:04:08;;;;;;;;;6.00;6.00;;;;;;;;3724628;38;20841;-58
2021/05/09 11:06:40;;;;;;;;;7.00;7.00;;;;;;;;3724498;37;20795;-58
2021/05/09 11:09:13;;;;;;;;;8.75;7.00;;;;;;;;3724643;38;20825;-58
2021/05/09 11:12:00;;;;;;;;;5.50;5.50;;;;;;;;3724738;38;20840;-58
2021/05/09 11:14:26;;;;;;;;;6.00;6.00;;;;;;;;3724627;38;20840;-59
2021/05/09 11:17:01;;;;;;;;;4.00;4.00;;;;;;;;3724731;38;20851;-59
2021/05/09 11:19:34;;;;;;;;;6.25;6.00;;;;;;;;3724446;38;17847;-59
2021/05/09 11:22:01;;;;;;;;;4.00;4.00;;;;;;;;3724819;37;20780;-58
2021/05/09 11:24:29;;;;;;;;;5.75;5.00;;;;;;;;3724638;38;21006;-59
2021/05/09 11:26:59;;;;;;;;;5.00;5.00;;;;;;;;3724788;37;20810;-59
2021/05/09 11:29:26;;;;;;;;;4.75;4.75;;;;;;;;3725070;38;20975;-60
2021/05/09 11:32:14;;;;;;;;;4.00;4.00;;;;;;;;3725024;37;20802;-61
2021/05/09 11:34:49;;;;;;;;;3.75;3.75;;;;;;;;3724963;37;20997;-58
2021/05/09 11:37:15;;;;;;;;;2.75;2.25;;;;;;;;3724787;38;20805;-59
2021/05/09 11:39:40;;;;;;;;;4.00;4.00;;;;;;;;3724697;37;20805;-59
2021/05/09 11:42:09;;;;;;;;;6.00;5.75;;;;;;;;3724684;37;20810;-59
2021/05/09 11:44:37;;;;;;;;;3.75;3.50;;;;;;;;3724576;38;17791;-58
2021/05/09 11:47:04;;;;;;;;;5.00;5.00;;;;;;;;3724742;38;20968;-58
2021/05/09 11:49:30;;;;;;;;;5.00;5.00;;;;;;;;3724665;38;20754;-58
2021/05/09 11:52:00;;;;;;;;;3.25;3.25;;;;;;;;3724683;38;20765;-58
2021/05/09 11:54:27;;;;;;;;;3.00;3.00;;;;;;;;3724717;37;20788;-59
2021/05/09 11:56:57;;;;;;;;;4.00;4.00;;;;;;;;3724526;37;20924;-59
2021/05/09 11:59:41;;;;;;;;;4.00;4.00;;;;;;;;3724633;38;20933;-60
2021/05/09 12:02:22;;;;;;;;;3.00;3.00;;;;;;;;3724510;37;20952;-58
2021/05/09 12:04:49;;;;;;;;;4.00;4.00;;;;;;;;3724632;37;20969;-61
2021/05/09 12:07:16;;;;;;;;;4.00;4.00;;;;;;;;3724595;38;20910;-57
2021/05/09 12:09:42;;;;;;;;;6.00;6.00;;;;;;;;3724733;38;20903;-60
2021/05/09 12:12:09;;;;;;;;;3.50;3.50;;;;;;;;3724690;37;20886;-59
2021/05/09 12:14:35;;;;;;;;;5.00;5.00;;;;;;;;3723861;38;20925;-58
2021/05/09 12:17:01;;;;;;;;;3.00;3.00;;;;;;;;3724034;38;20900;-62
2021/05/09 12:19:30;;;;;;;;;3.25;3.25;;;;;;;;3724212;37;20902;-62
2021/05/09 12:21:58;;;;;;;;;4.50;4.00;;;;;;;;3724318;38;17667;-62
2021/05/09 12:24:23;;;;;;;;;4.75;4.00;;;;;;;;3724586;38;20732;-59
2021/05/09 12:26:56;;;;;;;;;4.50;4.50;;;;;;;;3724710;37;20880;-61
2021/05/09 12:29:22;;;;;;;;;4.50;4.00;;;;;;;;3724629;37;17729;-59
2021/05/09 12:31:48;;;;;;;;;4.00;4.00;;;;;;;;3724505;37;20885;-59
2021/05/09 12:34:23;;;;;;;;;4.00;4.00;;;;;;;;3724677;37;17698;-58
2021/05/09 12:37:04;;;;;;;;;4.00;4.00;;;;;;;;3724573;37;20725;-59
2021/05/09 12:39:30;;;;;;;;;4.00;4.00;;;;;;;;3724323;37;20894;-59
2021/05/09 12:42:01;;;;;;;;;4.00;4.00;;;;;;;;3724564;38;20688;-60
2021/05/09 12:44:27;;;;;;;;;9.00;8.25;;;;;;;;3724566;37;20867;-61
2021/05/09 12:46:53;;;;;;;;;4.00;4.00;;;;;;;;3724609;37;20672;-61
2021/05/09 12:49:19;;;;;;;;;4.75;4.75;;;;;;;;3724975;38;17678;-60
2021/05/09 12:52:11;;;;;;;;;5.25;5.25;;;;;;;;3724879;38;17684;-60
2021/05/09 12:54:45;;;;;;;;;4.00;4.00;;;;;;;;3724591;38;20870;-61
2021/05/09 12:57:24;;;;;;;;;4.00;4.00;;;;;;;;3724690;38;20870;-61
2021/05/09 13:00:03;;;;;;;;;5.75;5.75;;;;;;;;3724596;37;20655;-61
2021/05/09 13:02:42;;;;;;;;;4.75;4.25;;;;;;;;3724880;38;20681;-61
2021/05/09 13:05:34;;;;;;;;;5.25;4.50;;;;;;;;3724620;38;20868;-61
2021/05/09 13:07:59;;;;;;;;;3.25;3.25;;;;;;;;3724717;37;20865;-61
2021/05/09 13:10:26;;;;;;;;;4.00;4.00;;;;;;;;3724695;38;20834;-60
2021/05/09 13:12:56;;;;;;;;;4.00;4.00;;;;;;;;3724572;38;17641;-59
2021/05/09 13:15:23;;;;;;;;;3.00;3.00;;;;;;;;3724547;37;20728;-59
2021/05/09 13:17:49;;;;;;;;;5.00;5.00;;;;;;;;3724185;38;20816;-60
2021/05/09 13:20:15;;;;;;;;;3.25;3.25;;;;;;;;3724693;37;20841;-59
2021/05/09 13:22:46;;;;;;;;;4.75;4.75;;;;;;;;3724513;37;20812;-60
2021/05/09 13:25:12;;;;;;;;;4.00;4.00;;;;;;;;3724233;38;21826;-59
2021/05/09 13:27:41;;;;;;;;;5.00;5.00;;;;;;;;3724246;37;21809;-59
2021/05/09 13:30:12;;;;;;;;;5.25;5.25;;;;;;;;3724232;37;21832;-59
2021/05/09 13:32:41;;;;;;;;;5.50;5.00;;;;;;;;3723929;37;20629;-57
2021/05/09 13:35:07;;;;;;;;;4.75;4.75;;;;;;;;3724391;38;21658;-60
2021/05/09 13:37:33;;;;;;;;;4.00;4.00;;;;;;;;3724884;38;18610;-59
2021/05/09 13:40:04;;;;;;;;;4.00;4.00;;;;;;;;3724735;37;21658;-59
2021/05/09 13:42:30;;;;;;;;;5.00;5.00;;;;;;;;3725292;37;20653;-62
2021/05/09 13:44:55;;;;;;;;;4.25;4.00;;;;;;;;3724635;38;21786;-59
2021/05/09 13:47:24;;;;;;;;;4.00;4.00;;;;;;;;3724689;38;18615;-58
2021/05/09 13:49:51;;;;;;;;;3.00;3.00;;;;;;;;3724716;37;18638;-61
2021/05/09 13:52:17;;;;;;;;;4.25;4.00;;;;;;;;3724519;37;21778;-62
2021/05/09 13:54:42;;;;;;;;;4.00;4.00;;;;;;;;3724569;38;21629;-62
2021/05/09 13:57:08;;;;;;;;;3.50;3.50;;;;;;;;3724985;37;18613;-63
2021/05/09 13:59:34;;;;;;;;;4.50;4.50;;;;;;;;3724923;38;18592;-63
2021/05/09 14:01:59;;;;;;;;;4.00;3.25;;;;;;;;3724881;38;18581;-62
2021/05/09 14:04:25;;;;;;;;;4.75;4.75;;;;;;;;3724751;37;18614;-62
2021/05/09 14:06:51;;;;;;;;;5.00;5.00;;;;;;;;3724993;37;18591;-62
2021/05/09 14:09:19;;;;;;;;;4.00;4.00;;;;;;;;3725530;37;18612;-63
2021/05/09 14:11:49;;;;;;;;;4.75;4.75;;;;;;;;3725134;38;21613;-62
2021/05/09 14:14:15;;;;;;;;;5.75;5.75;;;;;;;;3724849;38;21610;-61
2021/05/09 14:16:41;;;;;;;;;4.00;4.00;;;;;;;;3724621;37;21593;-62
2021/05/09 14:19:06;;;;;;;;;3.00;3.00;;;;;;;;3724782;38;21247;-62
2021/05/09 14:21:32;;;;;;;;;4.75;4.75;;;;;;;;3724743;38;18560;-62
2021/05/09 14:23:58;;;;;;;;;4.00;4.00;;;;;;;;3724802;37;18573;-61
2021/05/09 14:26:25;;;;;;;;;3.00;3.00;;;;;;;;3724806;38;18560;-62
2021/05/09 14:28:51;;;;;;;;;3.00;3.00;;;;;;;;3724682;37;18578;-62
2021/05/09 14:31:16;;;;;;;;;4.00;4.00;;;;;;;;3724881;38;21544;-62
2021/05/09 14:33:42;;;;;;;;;4.00;4.00;;;;;;;;3724851;38;18564;-62
2021/05/09 14:36:09;;;;;;;;;4.00;4.00;;;;;;;;3724593;38;18556;-62
2021/05/09 14:38:34;;;;;;;;;7.00;6.75;;;;;;;;3724563;37;18557;-63